Time;durP1;ratioP1;P1;durP2;ratioP2;P2;SDS_P1;SDS_P2;PMS_P1;PMS_P2;Temp;Humidity;BMP_temperature;BMP_pressure;BME280_temperature;BME280_humidity;BME280_pressure;Samples;Min_cycle;Max_cycle;Signal;HPM_P1;HPM_P2
2024/03/26 00:00:16;;;;;;;1.48;1.25;;;8.00;91.20;;;;;;5096416;28;20384;-78
2024/03/26 00:02:41;;;;;;;3.60;1.20;;;8.00;91.00;;;;;;5095687;28;20020;-77
2024/03/26 00:05:08;;;;;;;5.85;1.65;;;7.90;91.00;;;;;;5078181;28;20027;-78
2024/03/26 00:07:37;;;;;;;5.20;1.50;;;7.90;90.90;;;;;;5077988;28;20342;-79
2024/03/26 00:10:04;;;;;;;2.15;1.10;;;7.90;90.90;;;;;;5078347;28;20024;-78
2024/03/26 00:12:30;;;;;;;2.28;1.50;;;7.90;91.10;;;;;;5078419;28;20020;-76
2024/03/26 00:14:56;;;;;;;3.20;0.98;;;8.00;91.00;;;;;;5096218;28;20020;-76
2024/03/26 00:17:21;;;;;;;5.47;1.30;;;8.00;91.10;;;;;;5078111;28;20034;-76
2024/03/26 00:19:47;;;;;;;2.47;1.20;;;8.00;91.10;;;;;;5077931;28;20020;-76
2024/03/26 00:22:12;;;;;;;2.53;1.38;;;8.00;91.10;;;;;;5096267;28;20066;-76
2024/03/26 00:24:38;;;;;;;1.50;1.13;;;8.00;91.10;;;;;;5077459;28;20144;-77
2024/03/26 00:27:03;;;;;;;4.68;1.58;;;8.00;91.30;;;;;;5078245;28;20492;-76
2024/03/26 00:29:29;;;;;;;2.83;1.23;;;8.00;91.40;;;;;;5077586;28;20032;-77
2024/03/26 00:31:54;;;;;;;3.40;1.35;;;8.00;91.40;;;;;;5077092;28;20034;-76
2024/03/26 00:34:20;;;;;;;2.53;1.48;;;8.00;91.40;;;;;;5077480;28;20020;-78
2024/03/26 00:36:46;;;;;;;3.55;1.17;;;8.00;91.50;;;;;;5076997;28;20027;-79
2024/03/26 00:39:11;;;;;;;3.35;1.30;;;8.00;91.50;;;;;;5095289;28;20035;-76
2024/03/26 00:41:37;;;;;;;3.20;1.20;;;8.00;91.40;;;;;;5095061;28;20016;-76
2024/03/26 00:44:02;;;;;;;1.48;1.10;;;7.90;91.30;;;;;;5077348;28;20465;-76
2024/03/26 00:46:28;;;;;;;6.00;1.08;;;7.90;91.30;;;;;;5095532;28;20024;-76
2024/03/26 00:48:54;;;;;;;6.93;1.20;;;7.90;91.70;;;;;;5076952;28;20367;-77
2024/03/26 00:51:19;;;;;;;2.08;1.05;;;7.80;91.80;;;;;;5094879;28;20093;-76
2024/03/26 00:53:45;;;;;;;2.72;1.27;;;7.90;91.80;;;;;;5076695;28;20113;-76
2024/03/26 00:56:10;;;;;;;2.20;1.00;;;7.80;91.80;;;;;;5095250;28;20026;-76
2024/03/26 00:58:36;;;;;;;1.63;1.23;;;7.80;92.10;;;;;;5076608;28;20023;-76
2024/03/26 01:01:08;;;;;;;2.67;1.20;;;7.90;92.50;;;;;;5077074;28;20020;-76
2024/03/26 01:03:34;;;;;;;1.25;1.00;;;7.80;92.30;;;;;;5076733;28;20016;-78
2024/03/26 01:06:00;;;;;;;6.10;1.48;;;7.90;92.10;;;;;;5076898;28;20030;-76
2024/03/26 01:08:26;;;;;;;2.90;1.30;;;7.80;91.70;;;;;;5094328;28;20069;-76
2024/03/26 01:10:52;;;;;;;2.65;1.20;;;7.80;92.30;;;;;;5094399;28;20020;-76
2024/03/26 01:13:18;;;;;;;2.17;1.35;;;7.80;92.40;;;;;;5094492;28;20055;-76
2024/03/26 01:15:43;;;;;;;2.70;1.27;;;7.70;92.20;;;;;;5075728;28;20055;-76
2024/03/26 01:18:10;;;;;;;6.20;1.40;;;7.70;92.50;;;;;;5076690;28;20546;-76
2024/03/26 01:20:36;;;;;;;5.85;1.33;;;7.50;92.40;;;;;;5076030;28;20020;-77
2024/03/26 01:23:03;;;;;;;2.10;1.20;;;7.50;93.10;;;;;;5076367;28;20024;-76
2024/03/26 01:25:28;;;;;;;2.17;1.40;;;7.50;92.90;;;;;;5076536;28;20564;-76
2024/03/26 01:27:56;;;;;;;3.58;1.20;;;7.50;93.00;;;;;;5076182;28;20326;-76
2024/03/26 01:30:22;;;;;;;2.80;1.10;;;7.40;93.30;;;;;;5076452;28;20027;-76
2024/03/26 01:32:48;;;;;;;2.92;1.10;;;7.40;93.20;;;;;;5075627;28;20023;-75
2024/03/26 01:35:14;;;;;;;2.38;1.50;;;7.40;93.50;;;;;;5094164;28;20395;-76
2024/03/26 01:37:40;;;;;;;4.00;1.40;;;7.30;93.60;;;;;;5075760;28;20026;-76
2024/03/26 01:40:09;;;;;;;2.75;1.50;;;7.30;93.80;;;;;;5076444;28;20023;-76
2024/03/26 01:42:35;;;;;;;2.13;1.48;;;7.30;93.90;;;;;;5076097;28;20051;-76
2024/03/26 01:45:05;;;;;;;3.63;1.20;;;7.40;93.60;;;;;;5075564;28;20048;-75
2024/03/26 01:47:32;;;;;;;1.45;1.05;;;7.40;93.70;;;;;;5075999;28;20078;-76
2024/03/26 01:50:00;;;;;;;3.00;1.23;;;7.40;93.80;;;;;;5075459;28;20024;-76
2024/03/26 01:52:27;;;;;;;3.72;1.27;;;7.40;93.60;;;;;;5075997;28;20114;-76
2024/03/26 01:54:54;;;;;;;3.10;1.33;;;7.40;94.10;;;;;;5075339;28;20497;-76
2024/03/26 01:57:22;;;;;;;3.03;1.10;;;7.40;93.60;;;;;;5093650;28;20084;-75
2024/03/26 01:59:49;;;;;;;4.13;1.27;;;7.40;93.60;;;;;;5075264;28;20028;-76
2024/03/26 02:02:15;;;;;;;3.30;1.20;;;7.50;93.90;;;;;;5074921;28;20024;-75
2024/03/26 02:04:43;;;;;;;4.50;1.67;;;7.50;94.00;;;;;;5093310;28;20024;-75
2024/03/26 02:07:09;;;;;;;2.97;1.13;;;7.40;94.00;;;;;;5076053;28;20201;-76
2024/03/26 02:09:35;;;;;;;3.78;1.42;;;7.50;93.80;;;;;;5075697;28;20115;-76
2024/03/26 02:12:00;;;;;;;1.50;1.33;;;7.40;93.40;;;;;;5075508;28;20060;-76
2024/03/26 02:14:26;;;;;;;2.47;1.10;;;7.50;93.60;;;;;;5093891;28;20460;-76
2024/03/26 02:16:52;;;;;;;1.90;1.25;;;7.40;93.60;;;;;;5093042;28;20016;-76
2024/03/26 02:19:21;;;;;;;2.50;1.20;;;7.40;94.00;;;;;;5093714;28;20028;-77
2024/03/26 02:21:47;;;;;;;3.53;1.30;;;7.30;94.20;;;;;;5075449;28;20024;-77
2024/03/26 02:24:12;;;;;;;3.00;1.20;;;7.30;93.70;;;;;;5075924;28;20476;-77
2024/03/26 02:26:38;;;;;;;2.75;1.45;;;7.30;94.50;;;;;;5093491;28;20028;-87
2024/03/26 02:29:04;;;;;;;2.55;1.08;;;7.20;94.60;;;;;;5075766;28;20024;-77
2024/03/26 02:31:29;;;;;;;3.50;1.30;;;7.20;94.90;;;;;;5093613;28;20052;-77
2024/03/26 02:33:55;;;;;;;2.38;1.23;;;7.20;94.40;;;;;;5093207;28;20020;-77
2024/03/26 02:36:20;;;;;;;3.55;1.48;;;7.30;94.50;;;;;;5075839;28;20077;-77
2024/03/26 02:38:46;;;;;;;2.42;1.00;;;7.30;94.40;;;;;;5093147;28;20032;-77
2024/03/26 02:41:11;;;;;;;2.53;1.30;;;7.20;94.40;;;;;;5075394;28;20024;-77
2024/03/26 02:43:37;;;;;;;1.90;1.08;;;7.20;95.10;;;;;;5093148;28;20020;-76
2024/03/26 02:46:03;;;;;;;2.20;1.10;;;7.20;95.00;;;;;;5074734;28;20078;-77
2024/03/26 02:48:28;;;;;;;3.67;1.30;;;7.20;95.00;;;;;;5093401;28;20031;-76
2024/03/26 02:50:54;;;;;;;2.28;1.50;;;7.20;95.20;;;;;;5075182;28;20035;-76
2024/03/26 02:53:23;;;;;;;3.28;1.30;;;7.10;95.50;;;;;;5075473;28;20047;-77
2024/03/26 02:55:49;;;;;;;2.75;1.30;;;7.10;95.50;;;;;;5074958;28;20337;-77
2024/03/26 02:58:15;;;;;;;4.18;1.40;;;7.10;94.90;;;;;;5093321;28;20024;-76
2024/03/26 03:00:40;;;;;;;3.28;1.30;;;7.10;94.80;;;;;;5074619;28;20046;-87
2024/03/26 03:03:06;;;;;;;2.13;1.20;;;7.10;95.10;;;;;;5075205;28;20024;-76
2024/03/26 03:05:32;;;;;;;3.63;1.20;;;7.00;95.80;;;;;;5075695;28;20111;-76
2024/03/26 03:07:57;;;;;;;3.97;1.10;;;7.00;95.90;;;;;;5092860;28;20368;-77
2024/03/26 03:10:23;;;;;;;4.72;1.73;;;7.00;95.70;;;;;;5093162;28;20028;-77
2024/03/26 03:12:48;;;;;;;4.07;1.45;;;7.10;95.80;;;;;;5075622;28;20028;-76
2024/03/26 03:15:14;;;;;;;3.72;1.50;;;7.10;95.70;;;;;;5079191;28;20091;-77
2024/03/26 03:17:39;;;;;;;2.30;1.40;;;7.10;95.90;;;;;;5078955;28;20031;-77
2024/03/26 03:20:06;;;;;;;2.58;1.20;;;7.00;96.10;;;;;;5078533;28;20020;-77
2024/03/26 03:22:31;;;;;;;3.25;1.23;;;6.90;96.30;;;;;;5078538;28;20111;-77
2024/03/26 03:24:57;;;;;;;2.13;1.17;;;6.90;96.60;;;;;;5096410;28;20043;-77
2024/03/26 03:27:22;;;;;;;3.88;1.35;;;6.90;96.70;;;;;;5079377;28;20020;-76
2024/03/26 03:29:48;;;;;;;6.97;1.52;;;7.00;96.80;;;;;;5077590;28;20027;-76
2024/03/26 03:32:14;;;;;;;2.85;1.88;;;7.00;96.30;;;;;;5078472;28;20031;-76
2024/03/26 03:34:39;;;;;;;1.70;1.20;;;7.00;96.50;;;;;;5078653;28;20044;-76
2024/03/26 03:37:05;;;;;;;2.13;1.00;;;7.00;96.30;;;;;;5077977;28;20480;-76
2024/03/26 03:39:30;;;;;;;2.90;1.20;;;7.10;95.70;;;;;;5078362;28;20111;-76
2024/03/26 03:41:56;;;;;;;2.97;1.10;;;7.10;96.30;;;;;;5078045;28;20050;-76
2024/03/26 03:44:21;;;;;;;2.67;1.38;;;7.10;95.80;;;;;;5078383;28;20040;-76
2024/03/26 03:46:47;;;;;;;1.35;0.98;;;7.10;96.00;;;;;;5077726;28;20350;-76
2024/03/26 03:49:13;;;;;;;3.30;1.33;;;7.20;95.70;;;;;;5095899;28;20123;-75
2024/03/26 03:51:38;;;;;;;2.85;1.20;;;7.20;95.60;;;;;;5078143;28;20457;-76
2024/03/26 03:54:04;;;;;;;3.45;1.50;;;7.10;95.70;;;;;;5077645;28;20526;-76
2024/03/26 03:56:29;;;;;;;2.75;1.38;;;7.20;95.80;;;;;;5096261;28;20048;-76
2024/03/26 03:58:55;;;;;;;3.15;1.48;;;7.20;95.90;;;;;;5077743;28;20028;-75
2024/03/26 04:01:20;;;;;;;3.28;1.20;;;7.20;95.90;;;;;;5096268;28;20357;-75
2024/03/26 04:03:47;;;;;;;2.22;1.15;;;7.20;96.10;;;;;;5077692;28;20012;-75
2024/03/26 04:06:13;;;;;;;3.10;1.50;;;7.30;96.10;;;;;;5078030;28;20046;-75
2024/03/26 04:08:39;;;;;;;2.65;1.27;;;7.30;95.80;;;;;;5077840;28;20035;-76
2024/03/26 04:11:05;;;;;;;3.85;1.38;;;7.40;96.00;;;;;;5077913;28;20411;-76
2024/03/26 04:13:30;;;;;;;2.45;1.10;;;7.40;95.90;;;;;;5096226;28;20032;-76
2024/03/26 04:15:56;;;;;;;2.95;1.17;;;7.40;95.80;;;;;;5077983;28;20465;-76
2024/03/26 04:18:21;;;;;;;5.07;1.45;;;7.40;95.70;;;;;;5096079;28;20421;-76
2024/03/26 04:20:47;;;;;;;2.35;1.17;;;7.40;95.90;;;;;;5095734;28;20024;-77
2024/03/26 04:23:12;;;;;;;4.07;1.38;;;7.50;96.10;;;;;;5096233;28;20107;-76
2024/03/26 04:25:38;;;;;;;2.53;1.20;;;7.40;96.30;;;;;;5077075;28;20436;-77
2024/03/26 04:28:04;;;;;;;2.17;1.05;;;7.40;96.20;;;;;;5077030;28;20026;-76
2024/03/26 04:30:29;;;;;;;2.00;1.08;;;7.40;96.00;;;;;;5077751;28;20038;-77
2024/03/26 04:32:55;;;;;;;1.95;1.17;;;7.40;96.00;;;;;;5077309;28;20178;-77
2024/03/26 04:35:21;;;;;;;2.38;1.40;;;7.50;96.10;;;;;;5078215;28;20024;-77
2024/03/26 04:37:46;;;;;;;5.20;1.35;;;7.40;96.10;;;;;;5077147;28;20024;-81
2024/03/26 04:40:12;;;;;;;2.47;1.25;;;7.40;96.10;;;;;;5095318;28;20173;-75
2024/03/26 04:42:38;;;;;;;3.03;1.60;;;7.40;96.10;;;;;;5095315;28;20065;-75
2024/03/26 04:45:04;;;;;;;2.72;1.48;;;7.40;96.20;;;;;;5094669;28;20380;-76
2024/03/26 04:47:29;;;;;;;4.30;1.40;;;7.40;96.40;;;;;;5077214;28;20032;-76
2024/03/26 04:49:55;;;;;;;1.88;1.30;;;7.40;96.80;;;;;;5076788;28;20024;-76
2024/03/26 04:52:20;;;;;;;3.75;1.48;;;7.40;97.20;;;;;;5077254;28;20123;-75
2024/03/26 04:54:46;;;;;;;3.30;1.40;;;7.40;96.90;;;;;;5077219;28;20350;-75
2024/03/26 04:57:12;;;;;;;3.15;1.52;;;7.40;96.70;;;;;;5076996;28;20468;-75
2024/03/26 04:59:38;;;;;;;2.65;1.30;;;7.40;97.20;;;;;;5094916;28;20027;-76
2024/03/26 05:02:04;;;;;;;4.68;1.67;;;7.50;97.00;;;;;;5076321;28;20020;-75
2024/03/26 05:04:30;;;;;;;4.80;1.98;;;7.30;97.00;;;;;;5095286;28;20020;-76
2024/03/26 05:06:56;;;;;;;4.20;1.55;;;7.20;97.50;;;;;;5094585;28;20039;-76
2024/03/26 05:09:21;;;;;;;5.10;1.40;;;7.30;97.70;;;;;;5094768;28;20069;-76
2024/03/26 05:11:47;;;;;;;3.22;1.40;;;7.20;97.60;;;;;;5077085;28;20111;-76
2024/03/26 05:14:12;;;;;;;4.85;2.03;;;7.20;98.20;;;;;;5076197;28;20027;-77
2024/03/26 05:16:38;;;;;;;2.03;1.35;;;7.30;98.20;;;;;;5094598;28;20024;-77
2024/03/26 05:19:03;;;;;;;2.15;1.38;;;7.30;98.20;;;;;;5094164;28;20479;-76
2024/03/26 05:21:29;;;;;;;3.03;1.73;;;7.30;98.20;;;;;;5077096;28;20028;-77
2024/03/26 05:23:54;;;;;;;3.67;1.83;;;7.30;98.20;;;;;;5076351;28;20023;-76
2024/03/26 05:26:20;;;;;;;4.72;2.13;;;7.40;98.80;;;;;;5076570;28;20461;-76
2024/03/26 05:28:46;;;;;;;5.35;2.10;;;7.40;98.40;;;;;;5076140;28;20056;-76
2024/03/26 05:31:17;;;;;;;6.53;2.40;;;7.40;98.20;;;;;;5075798;28;20028;-76
2024/03/26 05:33:44;;;;;;;5.00;2.05;;;7.30;98.50;;;;;;5076126;28;20020;-77
2024/03/26 05:36:12;;;;;;;5.68;2.10;;;7.40;98.30;;;;;;5075954;28;20039;-78
2024/03/26 05:38:37;;;;;;;4.97;2.08;;;7.40;98.80;;;;;;5094549;28;20012;-78
2024/03/26 05:41:03;;;;;;;3.95;1.88;;;7.50;98.90;;;;;;5075721;28;20035;-79
2024/03/26 05:43:28;;;;;;;3.78;2.05;;;7.40;99.20;;;;;;5090066;28;20028;-86
2024/03/26 05:45:54;;;;;;;3.63;1.80;;;7.40;99.30;;;;;;5077837;28;20389;-84
2024/03/26 05:48:20;;;;;;;3.55;1.67;;;7.50;99.10;;;;;;5077257;28;20028;-83
2024/03/26 05:50:46;;;;;;;3.38;1.50;;;7.50;98.80;;;;;;5076687;28;20032;-83
2024/03/26 05:53:13;;;;;;;2.90;1.42;;;7.40;99.20;;;;;;5074889;28;20475;-83
2024/03/26 05:55:39;;;;;;;2.25;1.40;;;7.40;99.10;;;;;;5075540;28;20115;-83
2024/03/26 05:58:04;;;;;;;2.33;1.35;;;7.40;99.20;;;;;;5076114;28;20051;-84
2024/03/26 06:00:30;;;;;;;2.70;1.45;;;7.40;99.00;;;;;;5076874;28;20023;-84
2024/03/26 06:02:56;;;;;;;2.17;1.50;;;7.40;99.70;;;;;;5076688;28;20469;-84
2024/03/26 06:05:22;;;;;;;3.05;1.70;;;7.50;99.60;;;;;;5076517;28;20024;-85
2024/03/26 06:07:47;;;;;;;3.85;1.70;;;7.50;99.50;;;;;;5076666;28;20523;-85
2024/03/26 06:10:13;;;;;;;2.42;1.55;;;7.50;99.40;;;;;;5076087;28;20020;-85
2024/03/26 06:12:40;;;;;;;5.30;1.50;;;7.40;99.60;;;;;;5076399;28;20063;-88
2024/03/26 06:15:09;;;;;;;5.88;1.80;;;7.50;99.20;;;;;;5075429;28;20153;-85
2024/03/26 06:17:35;;;;;;;3.40;1.75;;;7.50;99.10;;;;;;5094536;28;20028;-86
2024/03/26 06:20:01;;;;;;;4.55;1.38;;;7.60;99.90;;;;;;5093570;28;20100;-84
2024/03/26 06:22:26;;;;;;;1.92;1.30;;;7.60;99.90;;;;;;5076129;28;20024;-85
2024/03/26 06:24:54;;;;;;;3.50;1.55;;;7.70;99.20;;;;;;5076021;28;20031;-83
2024/03/26 06:27:20;;;;;;;1.80;1.17;;;7.70;99.10;;;;;;5075533;28;20074;-85
2024/03/26 06:29:45;;;;;;;5.57;1.77;;;7.70;99.10;;;;;;5093755;28;20031;-85
2024/03/26 06:32:11;;;;;;;3.17;1.40;;;7.80;99.30;;;;;;5075608;28;20020;-85
2024/03/26 06:34:38;;;;;;;4.10;1.65;;;7.80;99.40;;;;;;5076064;28;20089;-85
2024/03/26 06:37:04;;;;;;;3.75;1.70;;;7.80;99.20;;;;;;5093258;28;20099;-84
2024/03/26 06:39:30;;;;;;;5.75;1.45;;;7.80;99.10;;;;;;5076270;28;20444;-85
2024/03/26 06:41:56;;;;;;;3.35;1.60;;;7.80;99.20;;;;;;5093558;28;20020;-83
2024/03/26 06:44:22;;;;;;;2.17;1.25;;;7.90;99.50;;;;;;5093389;28;20182;-85
2024/03/26 06:46:48;;;;;;;4.25;1.70;;;7.90;99.40;;;;;;5093732;28;20033;-85
2024/03/26 06:49:14;;;;;;;2.10;1.52;;;8.00;99.20;;;;;;5096241;28;20150;-86
2024/03/26 06:51:40;;;;;;;3.20;1.50;;;8.00;99.30;;;;;;5097996;28;20448;-85
2024/03/26 06:54:06;;;;;;;6.05;1.50;;;8.00;99.40;;;;;;5079633;28;20031;-84
2024/03/26 06:56:32;;;;;;;3.55;1.67;;;8.00;99.40;;;;;;5080181;28;20024;-84
2024/03/26 06:58:57;;;;;;;4.07;1.60;;;8.00;99.40;;;;;;5098062;28;20050;-82
2024/03/26 07:01:23;;;;;;;3.97;1.70;;;8.10;99.40;;;;;;5097398;28;20070;-84
2024/03/26 07:03:48;;;;;;;3.75;1.90;;;8.10;99.60;;;;;;5079982;28;20020;-84
2024/03/26 07:06:14;;;;;;;2.30;1.60;;;8.10;99.60;;;;;;5079427;28;20322;-85
2024/03/26 07:08:39;;;;;;;2.63;1.55;;;8.10;99.70;;;;;;5097633;28;20085;-84
2024/03/26 07:11:05;;;;;;;5.80;1.70;;;8.10;99.60;;;;;;5078746;28;20040;-84
2024/03/26 07:13:31;;;;;;;5.57;1.67;;;8.20;99.60;;;;;;5079383;28;20089;-84
2024/03/26 07:15:57;;;;;;;1.83;1.40;;;8.30;99.30;;;;;;5096675;28;20404;-83
2024/03/26 07:18:23;;;;;;;4.05;1.38;;;8.30;99.10;;;;;;5079266;28;20020;-84
2024/03/26 07:20:48;;;;;;;4.78;1.67;;;8.30;99.10;;;;;;5079958;28;20024;-84
2024/03/26 07:23:14;;;;;;;3.65;1.63;;;8.40;98.90;;;;;;5096965;28;20020;-84
2024/03/26 07:25:39;;;;;;;4.05;1.60;;;8.40;98.80;;;;;;5079562;28;20028;-83
2024/03/26 07:28:05;;;;;;;2.85;1.90;;;8.40;99.10;;;;;;5096678;28;20024;-84
2024/03/26 07:30:31;;;;;;;3.40;1.40;;;8.50;99.30;;;;;;5079122;28;20024;-84
2024/03/26 07:32:57;;;;;;;3.05;1.75;;;8.50;98.90;;;;;;5097102;28;20016;-82
2024/03/26 07:35:24;;;;;;;1.67;1.40;;;8.50;98.90;;;;;;5096015;28;20039;-86
2024/03/26 07:37:49;;;;;;;4.13;1.80;;;8.60;98.70;;;;;;5097072;28;20070;-85
2024/03/26 07:40:15;;;;;;;2.35;1.58;;;8.60;98.60;;;;;;5096839;28;20373;-86
2024/03/26 07:42:41;;;;;;;2.58;1.55;;;8.60;98.60;;;;;;5079159;28;20027;-86
2024/03/26 07:45:08;;;;;;;3.38;1.85;;;8.60;98.30;;;;;;5078434;28;20376;-86
2024/03/26 07:47:34;;;;;;;3.47;2.05;;;8.70;98.20;;;;;;5078953;28;20028;-86
2024/03/26 07:50:00;;;;;;;2.65;1.52;;;8.70;98.30;;;;;;5078886;28;20032;-86
2024/03/26 07:52:26;;;;;;;2.88;1.38;;;8.70;98.80;;;;;;5078885;28;20173;-86
2024/03/26 07:54:51;;;;;;;6.35;2.33;;;8.80;98.50;;;;;;5078877;28;20027;-85
2024/03/26 07:57:17;;;;;;;3.53;1.70;;;8.80;98.60;;;;;;5096401;28;20050;-87
2024/03/26 07:59:42;;;;;;;3.50;1.95;;;8.80;98.40;;;;;;5095572;28;20105;-86
2024/03/26 08:02:11;;;;;;;4.03;1.52;;;8.90;98.60;;;;;;5078280;28;20016;-84
2024/03/26 08:04:41;;;;;;;2.97;1.80;;;8.90;98.50;;;;;;5078989;28;20034;-85
2024/03/26 08:07:07;;;;;;;4.07;1.85;;;8.90;98.00;;;;;;5078117;28;20024;-86
2024/03/26 08:09:33;;;;;;;2.17;1.38;;;8.90;98.00;;;;;;5078917;28;20020;-85
2024/03/26 08:11:58;;;;;;;3.25;1.70;;;8.90;98.00;;;;;;5078557;28;20539;-88
2024/03/26 08:14:24;;;;;;;3.97;1.90;;;9.00;98.20;;;;;;5095999;28;20026;-86
2024/03/26 08:16:51;;;;;;;6.05;1.70;;;9.00;98.20;;;;;;5078539;28;20027;-86
2024/03/26 08:19:17;;;;;;;5.40;2.22;;;9.10;98.40;;;;;;5077977;28;20067;-87
2024/03/26 08:21:42;;;;;;;6.18;1.85;;;9.20;98.20;;;;;;5078799;28;20466;-87
2024/03/26 08:24:08;;;;;;;5.07;1.75;;;9.20;98.00;;;;;;5077837;28;20020;-86
2024/03/26 08:26:33;;;;;;;5.78;1.83;;;9.20;98.10;;;;;;5078188;28;20016;-85
2024/03/26 08:28:59;;;;;;;3.80;2.08;;;9.20;98.40;;;;;;5078175;28;20032;-85
2024/03/26 08:31:25;;;;;;;4.90;1.70;;;9.20;98.30;;;;;;5077891;28;20419;-85
2024/03/26 08:33:51;;;;;;;5.28;1.60;;;9.30;98.20;;;;;;5078376;28;20027;-85
2024/03/26 08:36:17;;;;;;;3.65;1.67;;;9.40;97.70;;;;;;5077352;28;20106;-85
2024/03/26 08:38:42;;;;;;;3.92;2.00;;;9.40;97.80;;;;;;5078165;28;20023;-86
2024/03/26 08:41:08;;;;;;;2.95;1.60;;;9.50;97.50;;;;;;5077716;28;20020;-85
2024/03/26 08:43:34;;;;;;;3.03;1.77;;;9.50;97.20;;;;;;5077585;28;20020;-87
2024/03/26 08:46:00;;;;;;;3.63;1.80;;;9.50;97.20;;;;;;5078339;28;20452;-85
2024/03/26 08:48:25;;;;;;;4.55;1.60;;;9.50;97.20;;;;;;5077233;28;20445;-85
2024/03/26 08:50:51;;;;;;;4.30;1.90;;;9.50;97.30;;;;;;5077800;28;20036;-86
2024/03/26 08:53:16;;;;;;;2.63;1.63;;;9.50;97.50;;;;;;5095312;28;20052;-85
2024/03/26 08:55:43;;;;;;;4.68;1.90;;;9.60;98.00;;;;;;5077485;28;20115;-86
2024/03/26 08:58:09;;;;;;;7.38;2.10;;;9.70;98.30;;;;;;5077118;28;20027;-85
2024/03/26 09:00:35;;;;;;;4.07;1.45;;;9.70;97.70;;;;;;5095198;28;20028;-86
2024/03/26 09:03:01;;;;;;;2.78;1.65;;;9.70;97.40;;;;;;5077413;28;20020;-84
2024/03/26 09:05:26;;;;;;;3.65;1.50;;;9.80;97.40;;;;;;5094828;28;20369;-84
2024/03/26 09:07:52;;;;;;;3.88;1.65;;;9.80;96.90;;;;;;5077319;28;20020;-85
2024/03/26 09:10:19;;;;;;;2.90;1.42;;;9.90;97.10;;;;;;5076453;28;20024;-86
2024/03/26 09:12:45;;;;;;;2.65;1.40;;;9.90;97.30;;;;;;5095489;28;20462;-85
2024/03/26 09:15:11;;;;;;;2.05;1.85;;;10.00;97.70;;;;;;5076742;28;20051;-86
2024/03/26 09:17:37;;;;;;;5.38;1.60;;;10.10;97.20;;;;;;5077456;28;20468;-86
2024/03/26 09:20:05;;;;;;;2.67;1.40;;;10.20;97.00;;;;;;5094919;28;20033;-85
2024/03/26 09:22:31;;;;;;;3.47;1.70;;;10.30;97.00;;;;;;5077013;28;20467;-85
2024/03/26 09:24:57;;;;;;;5.18;2.00;;;10.30;97.00;;;;;;5077169;28;20020;-86
2024/03/26 09:27:23;;;;;;;4.10;1.63;;;10.40;96.20;;;;;;5076451;28;20791;-85
2024/03/26 09:29:49;;;;;;;4.50;1.90;;;10.40;96.40;;;;;;5094903;28;20054;-85
2024/03/26 09:32:14;;;;;;;5.28;1.83;;;10.50;96.10;;;;;;5094140;28;20016;-85
2024/03/26 09:34:40;;;;;;;3.22;1.58;;;10.50;96.70;;;;;;5077135;28;20020;-85
2024/03/26 09:37:06;;;;;;;3.25;1.60;;;10.50;96.20;;;;;;5076423;28;20070;-82
2024/03/26 09:39:33;;;;;;;2.42;1.70;;;10.50;96.60;;;;;;5076160;28;20019;-85
2024/03/26 09:42:02;;;;;;;4.60;2.03;;;10.50;96.30;;;;;;5076660;28;20070;-85
2024/03/26 09:44:30;;;;;;;3.97;1.70;;;10.60;96.20;;;;;;5075712;28;20498;-85
2024/03/26 09:46:58;;;;;;;4.10;1.50;;;10.50;95.80;;;;;;5076927;28;20036;-85
2024/03/26 09:49:26;;;;;;;3.67;1.75;;;10.60;96.50;;;;;;5076081;28;20161;-85
2024/03/26 09:51:54;;;;;;;3.50;2.10;;;10.60;96.10;;;;;;5076785;28;20122;-85
2024/03/26 09:54:20;;;;;;;5.20;1.67;;;10.60;96.30;;;;;;5075851;28;20024;-85
2024/03/26 09:56:46;;;;;;;3.97;1.83;;;10.60;96.20;;;;;;5094856;28;20499;-85
2024/03/26 09:59:12;;;;;;;3.88;1.90;;;10.60;96.10;;;;;;5076449;28;20028;-85
2024/03/26 10:01:39;;;;;;;3.53;1.90;;;10.70;96.60;;;;;;5077083;28;20103;-85
2024/03/26 10:04:05;;;;;;;2.75;1.63;;;10.80;96.20;;;;;;5077054;28;20074;-85
2024/03/26 10:06:31;;;;;;;4.82;1.73;;;10.80;96.40;;;;;;5094531;28;20020;-85
2024/03/26 10:09:00;;;;;;;3.05;1.67;;;10.90;96.70;;;;;;5076721;28;20089;-85
2024/03/26 10:11:27;;;;;;;3.30;1.65;;;11.00;96.20;;;;;;5070280;28;20043;-86
2024/03/26 10:13:53;;;;;;;4.20;1.60;;;11.00;97.20;;;;;;5056586;28;20025;-86
2024/03/26 10:16:18;;;;;;;3.33;1.70;;;11.10;96.60;;;;;;5056038;28;20107;-86
2024/03/26 10:18:45;;;;;;;4.85;1.60;;;11.10;95.90;;;;;;5056211;28;20042;-86
2024/03/26 10:21:11;;;;;;;3.88;1.65;;;11.10;95.90;;;;;;5073867;28;20035;-84
2024/03/26 10:23:37;;;;;;;4.22;1.83;;;11.10;95.80;;;;;;5055477;28;20024;-86
2024/03/26 10:26:02;;;;;;;3.92;1.90;;;11.00;95.60;;;;;;5074898;28;20063;-86
2024/03/26 10:28:28;;;;;;;3.08;1.60;;;11.00;95.80;;;;;;5074041;28;20467;-86
2024/03/26 10:30:54;;;;;;;3.53;1.80;;;11.00;95.60;;;;;;5056133;28;20032;-86
2024/03/26 10:33:21;;;;;;;2.42;1.70;;;11.10;96.00;;;;;;5055695;28;20096;-86
2024/03/26 10:35:55;;;;;;;3.75;1.65;;;11.10;96.30;;;;;;5074017;28;20029;-86
2024/03/26 10:38:24;;;;;;;4.43;1.90;;;11.20;96.20;;;;;;5073342;28;20017;-85
2024/03/26 10:40:52;;;;;;;3.17;1.80;;;11.20;95.70;;;;;;5073800;28;20080;-85
2024/03/26 10:43:18;;;;;;;3.50;1.75;;;11.20;95.40;;;;;;5072553;28;20027;-86
2024/03/26 10:45:45;;;;;;;2.78;1.73;;;11.30;95.30;;;;;;5073315;28;20052;-86
2024/03/26 10:48:12;;;;;;;2.42;1.80;;;11.30;95.30;;;;;;5056113;28;20040;-84
2024/03/26 10:50:41;;;;;;;7.20;1.83;;;11.40;96.00;;;;;;5056352;28;20413;-86
2024/03/26 10:53:07;;;;;;;3.00;1.60;;;11.40;95.30;;;;;;5056192;28;20024;-86
2024/03/26 10:55:34;;;;;;;2.65;1.63;;;11.40;95.60;;;;;;5055668;28;20111;-86
2024/03/26 10:58:00;;;;;;;3.95;1.90;;;11.40;95.20;;;;;;5073668;28;20071;-86
2024/03/26 11:00:26;;;;;;;4.55;1.80;;;11.40;95.10;;;;;;5055139;28;20020;-86
2024/03/26 11:02:56;;;;;;;3.85;1.92;;;11.50;94.60;;;;;;5073483;28;20445;-86
2024/03/26 11:05:23;;;;;;;8.23;2.28;;;11.50;94.30;;;;;;5055257;28;20129;-85
2024/03/26 11:07:49;;;;;;;3.75;1.73;;;11.60;94.30;;;;;;5055397;28;20473;-86
2024/03/26 11:10:18;;;;;;;3.47;1.63;;;11.70;95.30;;;;;;5055082;28;20109;-85
2024/03/26 11:12:49;;;;;;;7.57;1.88;;;11.80;94.30;;;;;;5055969;28;20032;-86
2024/03/26 11:15:15;;;;;;;2.40;1.70;;;11.80;94.30;;;;;;5073146;28;20021;-86
2024/03/26 11:18:00;;;;;;;4.32;2.10;;;11.90;94.60;;;;;;5072751;28;20495;-86
2024/03/26 11:20:28;;;;;;;3.92;1.80;;;12.00;94.10;;;;;;5055302;28;20028;-86
2024/03/26 11:22:55;;;;;;;3.80;1.98;;;12.00;93.60;;;;;;5055440;28;20099;-86
2024/03/26 11:25:27;;;;;;;5.20;1.63;;;12.10;94.20;;;;;;5072531;28;20032;-85
2024/03/26 11:27:53;;;;;;;3.95;1.55;;;12.10;95.10;;;;;;5055015;28;20024;-85
2024/03/26 11:30:30;;;;;;;2.30;1.50;;;12.10;94.90;;;;;;5054899;28;20036;-85
2024/03/26 11:32:57;;;;;;;2.65;1.80;;;12.10;94.80;;;;;;5055838;28;20040;-86
2024/03/26 11:35:27;;;;;;;2.88;1.73;;;12.10;94.70;;;;;;5058557;28;20445;-85
2024/03/26 11:37:57;;;;;;;4.85;1.65;;;12.10;93.30;;;;;;5078245;28;20020;-89
2024/03/26 11:40:23;;;;;;;2.78;1.50;;;12.10;93.20;;;;;;5058313;28;20025;-90
2024/03/26 11:42:53;;;;;;;4.28;1.60;;;12.10;93.40;;;;;;5059290;28;20024;-91
2024/03/26 11:45:19;;;;;;;2.67;1.60;;;12.10;94.00;;;;;;5058765;28;20131;-91
2024/03/26 11:47:44;;;;;;;3.10;1.73;;;12.20;93.50;;;;;;5077002;28;20027;-91
2024/03/26 11:50:10;;;;;;;2.85;1.67;;;12.20;93.30;;;;;;5058934;28;20037;-91
2024/03/26 11:52:37;;;;;;;3.15;1.98;;;12.30;93.90;;;;;;5058138;28;20025;-91
2024/03/26 11:55:04;;;;;;;5.40;1.63;;;12.30;92.90;;;;;;5076806;28;20042;-89
2024/03/26 11:57:30;;;;;;;3.70;1.90;;;12.40;93.40;;;;;;5058522;28;20060;-89
2024/03/26 11:59:55;;;;;;;5.80;2.10;;;12.50;93.50;;;;;;5076895;28;20032;-90
2024/03/26 12:02:22;;;;;;;2.97;1.65;;;12.50;92.80;;;;;;5058366;28;20020;-89
2024/03/26 12:04:48;;;;;;;3.38;1.77;;;12.60;93.10;;;;;;5058929;28;20021;-90
2024/03/26 12:07:27;;;;;;;2.60;1.60;;;12.80;93.60;;;;;;5076282;28;20016;-87
2024/03/26 12:09:52;;;;;;;2.85;1.98;;;13.00;93.10;;;;;;5059029;28;20404;-89
2024/03/26 12:12:19;;;;;;;3.03;1.75;;;13.10;93.20;;;;;;5058507;28;20111;-88
2024/03/26 12:14:45;;;;;;;3.97;1.63;;;13.30;91.80;;;;;;5058688;28;20070;-90
2024/03/26 12:17:11;;;;;;;3.72;1.60;;;13.40;92.50;;;;;;5076475;28;20028;-89
2024/03/26 12:19:41;;;;;;;2.53;1.80;;;13.60;92.90;;;;;;5058258;28;20233;-90
2024/03/26 12:22:08;;;;;;;2.38;1.50;;;13.70;92.20;;;;;;5058632;28;20032;-88
2024/03/26 12:24:37;;;;;;;2.67;1.50;;;13.70;91.60;;;;;;5075725;28;20258;-88
2024/03/26 12:27:06;;;;;;;3.55;1.48;;;13.70;91.30;;;;;;5063503;28;20046;-89
2024/03/26 12:29:32;;;;;;;2.15;1.35;;;13.80;91.50;;;;;;5095752;28;20028;-89
2024/03/26 12:31:59;;;;;;;5.65;1.70;;;14.00;91.20;;;;;;5096081;28;20504;-90
2024/03/26 12:34:25;;;;;;;5.57;1.67;;;14.30;91.30;;;;;;5078260;28;20107;-90
2024/03/26 12:36:51;;;;;;;3.03;1.70;;;14.60;91.20;;;;;;5078810;28;20020;-91
2024/03/26 12:39:16;;;;;;;2.83;1.67;;;15.00;91.30;;;;;;5096860;28;20080;-86
2024/03/26 12:41:42;;;;;;;2.22;1.60;;;15.20;89.80;;;;;;5078171;28;20024;-90
2024/03/26 12:44:13;;;;;;;3.67;1.60;;;15.40;90.20;;;;;;5077672;28;20076;-90
2024/03/26 12:46:39;;;;;;;2.05;1.42;;;15.60;87.60;;;;;;5094811;28;20153;-89
2024/03/26 12:49:05;;;;;;;3.78;1.73;;;15.70;88.50;;;;;;5078107;28;20068;-89